Time;durP1;ratioP1;P1;durP2;ratioP2;P2;SDS_P1;SDS_P2;PMS_P1;PMS_P2;Temp;Humidity;BMP_temperature;BMP_pressure;BME280_temperature;BME280_humidity;BME280_pressure;Samples;Min_cycle;Max_cycle;Signal;HPM_P1;HPM_P2
2021/12/24 00:00:29;;;;;;;7.20;4.00;;;;;;;;;;4954079;28;20259;-65
2021/12/24 00:02:56;;;;;;;5.20;4.17;;;;;;;;;;4964403;28;20235;-65
2021/12/24 00:05:24;;;;;;;6.47;4.10;;;;;;;;;;4974209;28;20209;-64
2021/12/24 00:07:52;;;;;;;5.00;3.70;;;;;;;;;;4958995;28;20205;-65
2021/12/24 00:10:19;;;;;;;7.13;4.33;;;;;;;;;;4957603;28;20209;-62
2021/12/24 00:12:58;;;;;;;6.67;3.83;;;;;;;;;;4970309;28;20236;-65
2021/12/24 00:15:49;;;;;;;4.13;3.27;;;;;;;;;;4960507;28;20208;-65
2021/12/24 00:36:52;;;;;;;3.47;3.17;;;;;;;;;;4977169;28;20212;-64
2021/12/24 00:39:20;;;;;;;3.27;2.90;;;;;;;;;;4954158;28;20212;-64
2021/12/24 00:41:47;;;;;;;5.37;3.47;;;;;;;;;;4964934;28;20212;-65
2021/12/24 00:44:15;;;;;;;5.30;4.10;;;;;;;;;;4971086;28;20224;-65
2021/12/24 00:46:42;;;;;;;4.40;4.00;;;;;;;;;;4962694;28;20216;-63
2021/12/24 00:49:09;;;;;;;8.70;6.00;;;;;;;;;;4959804;28;21400;-64
2021/12/24 00:52:07;;;;;;;8.73;5.40;;;;;;;;;;4954838;28;20226;-64
2021/12/24 00:57:21;;;;;;;7.67;4.87;;;;;;;;;;4969578;28;20204;-65
2021/12/24 00:59:49;;;;;;;7.63;5.77;;;;;;;;;;4954693;28;20235;-64
2021/12/24 01:02:16;;;;;;;7.93;4.93;;;;;;;;;;4970865;28;20262;-64
2021/12/24 01:04:44;;;;;;;6.47;5.20;;;;;;;;;;4959985;28;20259;-64
2021/12/24 01:07:11;;;;;;;8.00;5.03;;;;;;;;;;4961740;28;20211;-64
2021/12/24 01:09:39;;;;;;;8.67;4.80;;;;;;;;;;4957175;28;20224;-64
2021/12/24 01:12:06;;;;;;;7.20;5.57;;;;;;;;;;4968458;28;20235;-64
2021/12/24 01:14:34;;;;;;;7.17;5.13;;;;;;;;;;4967103;28;20208;-65
2021/12/24 01:19:29;;;;;;;8.87;6.27;;;;;;;;;;4966667;28;20212;-65
2021/12/24 01:24:54;;;;;;;10.23;6.97;;;;;;;;;;4970314;28;20746;-65
2021/12/24 01:39:09;;;;;;;10.30;6.77;;;;;;;;;;4978066;28;20746;-65
2021/12/24 01:44:11;;;;;;;11.27;7.53;;;;;;;;;;4971686;28;20228;-63
2021/12/24 01:46:39;;;;;;;10.40;7.87;;;;;;;;;;4951754;28;20228;-63
2021/12/24 01:49:06;;;;;;;12.50;7.53;;;;;;;;;;4971744;28;20219;-64
2021/12/24 01:51:34;;;;;;;11.63;8.03;;;;;;;;;;4954080;28;20247;-65
2021/12/24 01:54:01;;;;;;;10.27;7.67;;;;;;;;;;4965674;28;20278;-64
2021/12/24 01:56:28;;;;;;;11.17;7.73;;;;;;;;;;4951696;28;20364;-64
2021/12/24 01:58:56;;;;;;;11.40;7.47;;;;;;;;;;4952951;28;20217;-65
2021/12/24 02:01:27;;;;;;;11.60;8.03;;;;;;;;;;4956076;28;20201;-64
2021/12/24 02:03:54;;;;;;;10.90;8.03;;;;;;;;;;4973378;28;20339;-64
2021/12/24 02:06:22;;;;;;;12.50;7.37;;;;;;;;;;4962731;28;20200;-64
2021/12/24 02:08:49;;;;;;;12.43;8.43;;;;;;;;;;4955218;28;20212;-64
2021/12/24 02:11:18;;;;;;;13.57;8.10;;;;;;;;;;4951924;28;20238;-64
2021/12/24 02:13:45;;;;;;;9.30;7.40;;;;;;;;;;4952754;28;20239;-65
2021/12/24 02:16:23;;;;;;;13.40;8.33;;;;;;;;;;4951904;28;20212;-65
2021/12/24 02:30:04;;;;;;;16.33;8.90;;;;;;;;;;4964887;28;20240;-65
2021/12/24 02:32:31;;;;;;;11.60;8.80;;;;;;;;;;4966619;28;20251;-65
2021/12/24 02:34:59;;;;;;;14.67;8.47;;;;;;;;;;4952260;28;20215;-64
2021/12/24 02:37:26;;;;;;;13.87;8.70;;;;;;;;;;4954823;28;20196;-64
2021/12/24 02:39:55;;;;;;;11.60;8.70;;;;;;;;;;4959558;28;20258;-64
2021/12/24 02:42:23;;;;;;;13.90;8.60;;;;;;;;;;4966666;28;20559;-64
2021/12/24 02:44:51;;;;;;;17.47;9.43;;;;;;;;;;4959303;28;20250;-63
2021/12/24 02:55:02;;;;;;;15.07;8.77;;;;;;;;;;4977938;28;20197;-63
2021/12/24 02:57:31;;;;;;;16.10;8.67;;;;;;;;;;4964535;28;20585;-64
2021/12/24 03:00:01;;;;;;;15.23;8.83;;;;;;;;;;4957873;28;21750;-65
2021/12/24 03:02:30;;;;;;;10.40;7.87;;;;;;;;;;4960766;28;20328;-65
2021/12/24 03:04:58;;;;;;;12.87;7.80;;;;;;;;;;4961006;28;20216;-65
2021/12/24 03:07:25;;;;;;;10.00;7.73;;;;;;;;;;4952702;28;20204;-64
2021/12/24 03:09:53;;;;;;;13.23;7.73;;;;;;;;;;4954245;28;20209;-64
2021/12/24 03:12:20;;;;;;;11.33;7.23;;;;;;;;;;4952424;28;20290;-64
2021/12/24 03:14:47;;;;;;;12.13;7.80;;;;;;;;;;4957200;28;20212;-64
2021/12/24 03:17:19;;;;;;;10.27;7.73;;;;;;;;;;4947046;28;20262;-64
2021/12/24 03:19:46;;;;;;;10.93;7.33;;;;;;;;;;4969469;28;20207;-64
2021/12/24 03:24:42;;;;;;;9.63;7.00;;;;;;;;;;4965197;28;20338;-64
2021/12/24 03:27:09;;;;;;;13.43;7.57;;;;;;;;;;4963532;28;20209;-64
2021/12/24 03:29:37;;;;;;;9.73;7.17;;;;;;;;;;4952838;28;20219;-64
2021/12/24 03:32:04;;;;;;;12.10;7.30;;;;;;;;;;4957830;28;20247;-65
2021/12/24 03:34:33;;;;;;;14.17;8.50;;;;;;;;;;4958116;28;20243;-64
2021/12/24 03:37:01;;;;;;;10.90;7.83;;;;;;;;;;4961324;28;20260;-65
2021/12/24 03:39:29;;;;;;;12.53;8.03;;;;;;;;;;4963887;28;20675;-62
2021/12/24 03:41:57;;;;;;;10.77;7.37;;;;;;;;;;4960058;28;20263;-65
2021/12/24 03:44:32;;;;;;;13.13;7.83;;;;;;;;;;4956200;28;20232;-64
2021/12/24 03:47:09;;;;;;;11.03;8.13;;;;;;;;;;4949980;28;20275;-65
2021/12/24 03:50:04;;;;;;;11.83;8.03;;;;;;;;;;4957530;28;20352;-64
2021/12/24 03:54:56;;;;;;;13.47;8.00;;;;;;;;;;4975073;28;20678;-63
2021/12/24 03:57:31;;;;;;;11.60;8.00;;;;;;;;;;4969111;28;20230;-63
2021/12/24 04:00:01;;;;;;;11.80;7.70;;;;;;;;;;4978939;28;20215;-64
2021/12/24 04:02:32;;;;;;;10.33;7.43;;;;;;;;;;4964412;28;20709;-64
2021/12/24 04:04:59;;;;;;;11.50;7.50;;;;;;;;;;4959795;28;20212;-65
2021/12/24 04:07:27;;;;;;;10.67;7.73;;;;;;;;;;4963602;28;20220;-65
2021/12/24 04:12:28;;;;;;;11.80;7.77;;;;;;;;;;4973777;28;20228;-65
2021/12/24 04:14:55;;;;;;;13.20;8.50;;;;;;;;;;4962952;28;20213;-64
2021/12/24 04:17:23;;;;;;;14.33;8.87;;;;;;;;;;4954323;28;20205;-64
2021/12/24 04:25:25;;;;;;;12.57;8.37;;;;;;;;;;4972160;28;20219;-63
2021/12/24 04:27:54;;;;;;;12.07;8.30;;;;;;;;;;4974294;28;20350;-63
2021/12/24 04:30:26;;;;;;;13.30;10.40;;;;;;;;;;4968438;28;20213;-64
2021/12/24 04:33:00;;;;;;;14.97;9.47;;;;;;;;;;4955018;28;20232;-64
2021/12/24 04:51:53;;;;;;;14.27;9.00;;;;;;;;;;4974024;28;20212;-64
2021/12/24 05:02:51;;;;;;;12.83;9.47;;;;;;;;;;4978375;28;20231;-64
2021/12/24 05:10:18;;;;;;;14.57;10.03;;;;;;;;;;4978948;28;20256;-65
2021/12/24 05:12:45;;;;;;;16.03;9.30;;;;;;;;;;4963312;28;20243;-65
2021/12/24 05:15:13;;;;;;;12.80;9.00;;;;;;;;;;4955886;28;20288;-64
2021/12/24 05:23:00;;;;;;;13.53;9.00;;;;;;;;;;4978962;28;20710;-65
2021/12/24 05:25:27;;;;;;;16.10;10.50;;;;;;;;;;4956559;28;20204;-64
2021/12/24 05:27:57;;;;;;;16.33;11.20;;;;;;;;;;4953606;28;20216;-64
2021/12/24 05:30:25;;;;;;;16.33;11.07;;;;;;;;;;4948435;28;20865;-64
2021/12/24 05:32:52;;;;;;;16.40;11.03;;;;;;;;;;4958359;28;20236;-63
2021/12/24 05:35:19;;;;;;;16.17;10.33;;;;;;;;;;4970500;28;20211;-64
2021/12/24 05:37:47;;;;;;;13.57;10.93;;;;;;;;;;4966632;28;20211;-64
2021/12/24 05:40:14;;;;;;;14.40;10.07;;;;;;;;;;4966797;28;20687;-65
2021/12/24 05:42:42;;;;;;;13.03;9.07;;;;;;;;;;4970890;28;20243;-64
2021/12/24 05:45:10;;;;;;;13.70;9.30;;;;;;;;;;4957522;28;20212;-64
2021/12/24 05:47:38;;;;;;;13.50;8.20;;;;;;;;;;4962767;28;20204;-64
2021/12/24 05:50:05;;;;;;;13.77;8.80;;;;;;;;;;4954952;28;20216;-63
2021/12/24 05:52:33;;;;;;;11.43;7.93;;;;;;;;;;4960697;28;20236;-62
2021/12/24 05:55:01;;;;;;;11.73;8.07;;;;;;;;;;4964929;28;20201;-64
2021/12/24 05:57:29;;;;;;;10.30;7.93;;;;;;;;;;4954521;28;20203;-63
2021/12/24 05:59:56;;;;;;;10.93;7.80;;;;;;;;;;4961860;28;20613;-63
2021/12/24 06:02:23;;;;;;;11.43;8.03;;;;;;;;;;4977146;28;20231;-64
2021/12/24 06:04:51;;;;;;;15.83;9.70;;;;;;;;;;4958855;28;20213;-63
2021/12/24 06:07:18;;;;;;;12.63;8.30;;;;;;;;;;4960122;28;20212;-65
2021/12/24 06:09:46;;;;;;;12.67;9.37;;;;;;;;;;4962465;28;20274;-65
2021/12/24 06:12:13;;;;;;;13.43;9.27;;;;;;;;;;4960018;28;20764;-65
2021/12/24 06:14:41;;;;;;;16.23;10.63;;;;;;;;;;4967519;28;20287;-65
2021/12/24 06:17:15;;;;;;;10.47;7.63;;;;;;;;;;4967993;28;20212;-65
2021/12/24 06:19:42;;;;;;;10.07;6.70;;;;;;;;;;4962979;28;20209;-64
2021/12/24 06:22:10;;;;;;;8.10;6.37;;;;;;;;;;4952572;28;20282;-65
2021/12/24 06:24:37;;;;;;;10.13;7.03;;;;;;;;;;4959016;28;21244;-63
2021/12/24 06:27:05;;;;;;;10.67;7.47;;;;;;;;;;4971433;28;20216;-65
2021/12/24 06:29:32;;;;;;;10.07;7.43;;;;;;;;;;4966145;28;20823;-64
2021/12/24 06:32:00;;;;;;;11.03;7.07;;;;;;;;;;4974116;28;20216;-64
2021/12/24 06:34:30;;;;;;;11.17;7.10;;;;;;;;;;4950968;28;20244;-64
2021/12/24 06:36:59;;;;;;;10.03;6.63;;;;;;;;;;4951829;28;20219;-64
2021/12/24 06:39:26;;;;;;;9.87;6.63;;;;;;;;;;4952989;28;20201;-64
2021/12/24 06:41:54;;;;;;;8.60;6.93;;;;;;;;;;4949534;28;20793;-65
2021/12/24 06:44:22;;;;;;;9.57;6.43;;;;;;;;;;4952142;28;20233;-64
2021/12/24 06:46:49;;;;;;;8.90;6.93;;;;;;;;;;4951266;28;20697;-65
2021/12/24 06:49:17;;;;;;;8.43;6.70;;;;;;;;;;4952933;28;20244;-65
2021/12/24 06:51:44;;;;;;;9.90;6.50;;;;;;;;;;4950108;28;20220;-64
2021/12/24 06:54:12;;;;;;;9.27;6.27;;;;;;;;;;4951729;28;20232;-63
2021/12/24 06:56:44;;;;;;;11.67;6.50;;;;;;;;;;4944107;28;20217;-64
2021/12/24 06:59:12;;;;;;;7.73;6.17;;;;;;;;;;4952571;28;20218;-65
2021/12/24 07:01:39;;;;;;;8.17;6.17;;;;;;;;;;4949950;28;20275;-64
2021/12/24 07:04:07;;;;;;;9.57;6.37;;;;;;;;;;4951780;28;20232;-63
2021/12/24 07:06:37;;;;;;;11.23;6.40;;;;;;;;;;4946981;28;20774;-65
2021/12/24 07:09:04;;;;;;;9.30;5.83;;;;;;;;;;4948908;28;20212;-64
2021/12/24 07:11:32;;;;;;;7.57;5.77;;;;;;;;;;4954871;28;20215;-63
2021/12/24 07:13:59;;;;;;;9.60;7.07;;;;;;;;;;4953378;28;20307;-63
2021/12/24 07:16:27;;;;;;;14.60;8.30;;;;;;;;;;4950619;28;21137;-64
2021/12/24 07:18:54;;;;;;;14.23;9.27;;;;;;;;;;4949725;28;20254;-65
2021/12/24 07:21:21;;;;;;;14.73;8.83;;;;;;;;;;4950459;28;20204;-65
2021/12/24 07:23:49;;;;;;;20.83;11.87;;;;;;;;;;4954534;28;20240;-64
2021/12/24 07:26:16;;;;;;;36.37;19.77;;;;;;;;;;4961202;28;20254;-64
2021/12/24 07:28:44;;;;;;;59.73;30.13;;;;;;;;;;4960259;28;20619;-64
2021/12/24 07:31:11;;;;;;;38.40;22.20;;;;;;;;;;4965101;28;20204;-64
2021/12/24 07:33:39;;;;;;;36.93;20.67;;;;;;;;;;4948936;28;20240;-64
2021/12/24 07:36:06;;;;;;;44.33;24.37;;;;;;;;;;4952994;28;20205;-64
2021/12/24 07:38:34;;;;;;;46.27;23.80;;;;;;;;;;4944324;28;20216;-65
2021/12/24 07:41:01;;;;;;;45.07;22.93;;;;;;;;;;4952619;28;25729;-64
2021/12/24 07:43:29;;;;;;;52.40;27.57;;;;;;;;;;4945597;28;20280;-64
2021/12/24 07:45:57;;;;;;;21.00;13.70;;;;;;;;;;4961447;28;20251;-63
2021/12/24 07:48:28;;;;;;;13.17;8.47;;;;;;;;;;4957009;28;20729;-64
2021/12/24 07:53:25;;;;;;;8.63;7.00;;;;;;;;;;4960518;28;20229;-64
2021/12/24 07:55:55;;;;;;;9.90;6.80;;;;;;;;;;4951677;28;20227;-63
2021/12/24 07:58:23;;;;;;;11.00;7.77;;;;;;;;;;4939702;28;20534;-64
2021/12/24 08:00:51;;;;;;;10.63;6.87;;;;;;;;;;4947062;28;20709;-63
2021/12/24 08:03:19;;;;;;;8.50;6.20;;;;;;;;;;4931602;28;20240;-64
2021/12/24 08:05:49;;;;;;;6.90;5.50;;;;;;;;;;4958274;28;20768;-65
2021/12/24 08:08:16;;;;;;;8.77;6.13;;;;;;;;;;4946160;28;20232;-64
2021/12/24 08:10:44;;;;;;;8.23;6.47;;;;;;;;;;4946785;28;20221;-63
2021/12/24 08:13:11;;;;;;;8.27;6.50;;;;;;;;;;4955749;28;20721;-61
2021/12/24 08:15:38;;;;;;;8.53;7.27;;;;;;;;;;4944763;28;20196;-64
2021/12/24 08:18:09;;;;;;;8.43;6.67;;;;;;;;;;4944783;28;20213;-63
2021/12/24 08:20:36;;;;;;;9.73;6.37;;;;;;;;;;4940715;28;20951;-62
2021/12/24 08:23:04;;;;;;;8.77;6.07;;;;;;;;;;4944694;28;20236;-64
2021/12/24 08:25:31;;;;;;;8.30;6.60;;;;;;;;;;4951133;28;20212;-66
2021/12/24 08:27:59;;;;;;;9.70;6.07;;;;;;;;;;4946093;28;20213;-64
2021/12/24 08:30:26;;;;;;;7.70;6.03;;;;;;;;;;4939803;28;21063;-64
2021/12/24 08:32:56;;;;;;;8.03;6.30;;;;;;;;;;4946848;28;20240;-64
2021/12/24 08:35:28;;;;;;;8.83;6.27;;;;;;;;;;4956850;28;20239;-64
2021/12/24 08:37:57;;;;;;;8.33;6.30;;;;;;;;;;4941470;28;20228;-65
2021/12/24 08:40:27;;;;;;;8.60;6.43;;;;;;;;;;4956846;28;20342;-64
2021/12/24 08:42:55;;;;;;;12.03;7.87;;;;;;;;;;4943350;28;20237;-64
2021/12/24 08:45:22;;;;;;;10.67;7.37;;;;;;;;;;4945325;28;20227;-63
2021/12/24 08:47:50;;;;;;;12.47;9.03;;;;;;;;;;4946229;28;21192;-65
2021/12/24 08:50:18;;;;;;;15.40;11.03;;;;;;;;;;4942380;28;20205;-64
2021/12/24 08:52:46;;;;;;;11.97;8.67;;;;;;;;;;4955820;28;20232;-63
2021/12/24 08:55:15;;;;;;;8.93;7.17;;;;;;;;;;4945880;28;20233;-64
2021/12/24 08:57:43;;;;;;;9.87;7.73;;;;;;;;;;4935597;28;20627;-62
2021/12/24 09:00:13;;;;;;;9.50;6.83;;;;;;;;;;4935606;28;20208;-62
2021/12/24 09:02:41;;;;;;;8.70;6.50;;;;;;;;;;4940807;28;22032;-62
2021/12/24 09:05:10;;;;;;;9.50;7.13;;;;;;;;;;4943573;28;20594;-64
2021/12/24 09:07:38;;;;;;;9.00;6.90;;;;;;;;;;4964681;28;20209;-65
2021/12/24 09:10:05;;;;;;;9.93;7.07;;;;;;;;;;4950846;28;20208;-65
2021/12/24 09:12:33;;;;;;;10.40;7.23;;;;;;;;;;4945004;28;20236;-63
2021/12/24 09:15:00;;;;;;;10.53;7.60;;;;;;;;;;4939575;28;20384;-65
2021/12/24 09:17:29;;;;;;;10.90;7.33;;;;;;;;;;4942302;28;20578;-63
2021/12/24 09:19:57;;;;;;;10.97;7.80;;;;;;;;;;4948560;28;20199;-65
2021/12/24 09:22:31;;;;;;;10.27;7.57;;;;;;;;;;4967470;28;20229;-65
2021/12/24 09:24:58;;;;;;;10.03;7.27;;;;;;;;;;4953675;28;23070;-62
2021/12/24 09:27:27;;;;;;;11.77;7.57;;;;;;;;;;4944587;28;20212;-64
2021/12/24 09:29:55;;;;;;;14.00;7.93;;;;;;;;;;4959753;28;20216;-63
2021/12/24 09:32:23;;;;;;;14.20;7.40;;;;;;;;;;4942479;28;20217;-65
2021/12/24 09:34:52;;;;;;;10.17;7.70;;;;;;;;;;4939068;28;21386;-65
2021/12/24 09:37:19;;;;;;;12.77;7.63;;;;;;;;;;4944959;28;20205;-65
2021/12/24 09:39:47;;;;;;;10.50;6.83;;;;;;;;;;4946617;28;20209;-64
2021/12/24 09:42:14;;;;;;;9.43;7.10;;;;;;;;;;4950194;28;20208;-65
2021/12/24 09:44:41;;;;;;;15.00;8.10;;;;;;;;;;4950432;28;20201;-64
2021/12/24 09:47:09;;;;;;;11.13;7.80;;;;;;;;;;4957951;28;20204;-65
2021/12/24 09:49:36;;;;;;;10.80;7.43;;;;;;;;;;4943720;28;20228;-64
2021/12/24 09:52:04;;;;;;;12.03;7.80;;;;;;;;;;4965977;28;20208;-65
2021/12/24 09:54:32;;;;;;;10.83;8.10;;;;;;;;;;4942584;28;20236;-63
2021/12/24 09:57:01;;;;;;;10.77;7.60;;;;;;;;;;4958740;28;20219;-64
2021/12/24 09:59:29;;;;;;;9.90;8.27;;;;;;;;;;4946024;28;20247;-64
2021/12/24 10:01:58;;;;;;;10.77;7.83;;;;;;;;;;4945184;28;20212;-64
2021/12/24 10:04:27;;;;;;;10.90;8.50;;;;;;;;;;4946347;28;20257;-65
2021/12/24 10:06:56;;;;;;;14.17;7.53;;;;;;;;;;4943408;28;20215;-64
2021/12/24 10:09:31;;;;;;;11.53;8.00;;;;;;;;;;4951827;28;20278;-64
2021/12/24 10:12:01;;;;;;;12.67;7.87;;;;;;;;;;4945511;28;20296;-64
2021/12/24 10:14:36;;;;;;;10.53;7.27;;;;;;;;;;4948121;28;20256;-64
2021/12/24 10:17:05;;;;;;;9.83;7.20;;;;;;;;;;4953884;28;20346;-63
2021/12/24 10:19:46;;;;;;;9.87;7.50;;;;;;;;;;4945934;28;20212;-62
2021/12/24 10:22:14;;;;;;;11.63;8.33;;;;;;;;;;4946564;28;20450;-64
2021/12/24 10:24:41;;;;;;;13.17;8.63;;;;;;;;;;4945116;28;20216;-62
2021/12/24 10:27:11;;;;;;;11.83;8.27;;;;;;;;;;4940948;28;20224;-64
2021/12/24 10:29:41;;;;;;;10.90;7.73;;;;;;;;;;4970034;28;20596;-63
2021/12/24 10:32:11;;;;;;;26.57;13.83;;;;;;;;;;4947587;28;20204;-64
2021/12/24 10:34:39;;;;;;;48.83;22.00;;;;;;;;;;4948746;28;20227;-62
2021/12/24 10:37:12;;;;;;;42.20;23.33;;;;;;;;;;4972095;28;20212;-65
2021/12/24 10:39:40;;;;;;;29.57;19.13;;;;;;;;;;4962869;28;20200;-64
2021/12/24 10:42:37;;;;;;;8.77;7.53;;;;;;;;;;4965680;28;20215;-64
2021/12/24 10:45:08;;;;;;;9.20;6.13;;;;;;;;;;4939123;28;20244;-64
2021/12/24 10:47:39;;;;;;;6.87;5.30;;;;;;;;;;4960948;28;20212;-63
2021/12/24 10:50:26;;;;;;;8.97;7.27;;;;;;;;;;4939659;28;20647;-62
2021/12/24 10:55:24;;;;;;;9.40;6.03;;;;;;;;;;4964908;28;20228;-64
2021/12/24 10:57:52;;;;;;;7.47;6.10;;;;;;;;;;4953634;28;20200;-63
2021/12/24 11:00:19;;;;;;;8.20;6.57;;;;;;;;;;4970117;28;20681;-65
2021/12/24 11:02:51;;;;;;;6.13;4.93;;;;;;;;;;4953879;28;20223;-65
2021/12/24 11:05:31;;;;;;;5.63;4.53;;;;;;;;;;4952935;28;20209;-64
2021/12/24 11:07:59;;;;;;;4.60;3.87;;;;;;;;;;4962214;28;20200;-64
2021/12/24 11:10:28;;;;;;;8.57;5.63;;;;;;;;;;4951376;28;20213;-64
2021/12/24 11:12:57;;;;;;;6.73;4.70;;;;;;;;;;4950886;28;20227;-65
2021/12/24 11:15:24;;;;;;;7.23;5.60;;;;;;;;;;4954986;28;20250;-64
2021/12/24 11:17:53;;;;;;;6.40;5.17;;;;;;;;;;4953480;28;20216;-65
2021/12/24 11:20:20;;;;;;;5.87;4.57;;;;;;;;;;4952497;28;21371;-63
2021/12/24 11:23:08;;;;;;;7.13;4.60;;;;;;;;;;4952875;28;20216;-63
2021/12/24 11:25:43;;;;;;;10.20;7.90;;;;;;;;;;4952179;28;20211;-64
2021/12/24 11:28:11;;;;;;;15.37;11.07;;;;;;;;;;4944289;28;20698;-64
2021/12/24 11:30:41;;;;;;;19.40;14.73;;;;;;;;;;4948065;28;20215;-64
2021/12/24 11:33:12;;;;;;;19.77;16.50;;;;;;;;;;4966560;28;20229;-65
2021/12/24 11:35:40;;;;;;;13.23;9.90;;;;;;;;;;4963208;28;20239;-63
2021/12/24 11:38:07;;;;;;;5.57;4.20;;;;;;;;;;4954636;28;20201;-65
2021/12/24 11:40:35;;;;;;;5.40;4.90;;;;;;;;;;4955940;28;20205;-63
2021/12/24 11:43:04;;;;;;;5.93;5.33;;;;;;;;;;4933411;28;20248;-65
2021/12/24 11:45:33;;;;;;;7.23;6.53;;;;;;;;;;4953651;28;20200;-65
2021/12/24 11:48:02;;;;;;;5.53;3.33;;;;;;;;;;4949755;28;20303;-65
2021/12/24 11:50:30;;;;;;;4.97;4.40;;;;;;;;;;4969934;28;20611;-65
2021/12/24 11:52:59;;;;;;;15.33;12.03;;;;;;;;;;4959878;28;20235;-65
2021/12/24 11:55:27;;;;;;;9.93;7.00;;;;;;;;;;4955870;28;20225;-64
2021/12/24 11:57:57;;;;;;;8.83;6.20;;;;;;;;;;4955385;28;22526;-65
2021/12/24 12:00:26;;;;;;;11.23;7.30;;;;;;;;;;4952496;28;20212;-64
2021/12/24 12:02:53;;;;;;;13.70;8.47;;;;;;;;;;4943340;28;20658;-62
2021/12/24 12:05:24;;;;;;;20.57;12.53;;;;;;;;;;4951903;28;20227;-64
2021/12/24 12:07:52;;;;;;;9.10;6.33;;;;;;;;;;4961341;28;20286;-65
2021/12/24 12:10:39;;;;;;;4.87;4.37;;;;;;;;;;4967647;28;20681;-63
2021/12/24 12:13:26;;;;;;;12.23;7.67;;;;;;;;;;4942773;28;20247;-63
2021/12/24 12:15:57;;;;;;;5.03;3.63;;;;;;;;;;4955211;28;20738;-64
2021/12/24 12:18:33;;;;;;;7.73;5.60;;;;;;;;;;4970533;28;20218;-63
2021/12/24 12:21:11;;;;;;;6.10;5.30;;;;;;;;;;4951245;28;20216;-63
2021/12/24 12:26:37;;;;;;;5.83;4.87;;;;;;;;;;4930740;28;20268;-63
2021/12/24 12:29:16;;;;;;;12.37;7.90;;;;;;;;;;4960167;28;20212;-63
2021/12/24 12:31:44;;;;;;;9.97;7.07;;;;;;;;;;4950583;28;20623;-64
2021/12/24 12:34:47;;;;;;;9.50;7.33;;;;;;;;;;4953512;28;20231;-64
2021/12/24 12:37:15;;;;;;;16.90;8.10;;;;;;;;;;4851504;29;20307;-62
2021/12/24 12:39:43;;;;;;;7.20;5.03;;;;;;;;;;4936549;28;21655;-64
2021/12/24 12:42:13;;;;;;;12.07;8.30;;;;;;;;;;4955335;28;20204;-62
2021/12/24 12:44:42;;;;;;;19.03;12.13;;;;;;;;;;4948227;28;20313;-63
2021/12/24 12:47:12;;;;;;;16.47;11.10;;;;;;;;;;4971720;28;20250;-64
2021/12/24 12:49:40;;;;;;;5.57;4.43;;;;;;;;;;4957738;28;20213;-64
2021/12/24 12:52:20;;;;;;;7.77;6.23;;;;;;;;;;4952297;28;20212;-63
2021/12/24 12:54:49;;;;;;;4.00;3.60;;;;;;;;;;4943742;28;20232;-64
2021/12/24 12:57:37;;;;;;;5.00;4.17;;;;;;;;;;4951203;28;21896;-64
2021/12/24 13:00:21;;;;;;;4.77;4.00;;;;;;;;;;4957056;28;20212;-64
2021/12/24 13:02:54;;;;;;;4.13;3.30;;;;;;;;;;4955622;28;20275;-64
2021/12/24 13:05:23;;;;;;;3.27;2.97;;;;;;;;;;4957202;28;20219;-64
2021/12/24 13:07:51;;;;;;;3.63;2.90;;;;;;;;;;4959965;28;20220;-64
2021/12/24 13:10:19;;;;;;;4.53;2.70;;;;;;;;;;4954890;28;20200;-63
2021/12/24 13:12:47;;;;;;;3.20;2.90;;;;;;;;;;4954152;28;20246;-63
2021/12/24 13:15:17;;;;;;;3.40;3.10;;;;;;;;;;4967608;28;20284;-63
2021/12/24 13:17:45;;;;;;;3.07;2.87;;;;;;;;;;4969184;28;20208;-63
2021/12/24 13:20:31;;;;;;;3.60;3.23;;;;;;;;;;4971471;28;20212;-64
2021/12/24 13:22:58;;;;;;;4.93;3.03;;;;;;;;;;4938315;28;20361;-64
2021/12/24 13:25:28;;;;;;;3.10;2.80;;;;;;;;;;4951849;28;20250;-64
2021/12/24 13:27:58;;;;;;;9.37;8.43;;;;;;;;;;4959727;28;20255;-63
2021/12/24 13:30:27;;;;;;;5.60;5.17;;;;;;;;;;4957041;28;20205;-64
2021/12/24 13:32:56;;;;;;;4.07;3.37;;;;;;;;;;4960316;28;20240;-64
2021/12/24 13:35:50;;;;;;;5.17;4.77;;;;;;;;;;4960733;28;20228;-64
2021/12/24 13:38:24;;;;;;;3.10;2.90;;;;;;;;;;4950441;28;20333;-64
2021/12/24 13:40:56;;;;;;;4.33;3.93;;;;;;;;;;4953725;28;20211;-63
2021/12/24 13:43:26;;;;;;;4.60;4.10;;;;;;;;;;4975151;28;20633;-64
2021/12/24 13:45:56;;;;;;;4.90;4.40;;;;;;;;;;4961612;28;20208;-63
2021/12/24 13:48:33;;;;;;;6.40;4.43;;;;;;;;;;4959152;28;20220;-63
2021/12/24 13:56:46;;;;;;;5.23;4.40;;;;;;;;;;4975263;28;20236;-63
2021/12/24 13:59:15;;;;;;;5.00;4.47;;;;;;;;;;4960740;28;20274;-63
2021/12/24 14:01:43;;;;;;;14.63;9.80;;;;;;;;;;4958598;28;20224;-63
2021/12/24 14:04:11;;;;;;;12.53;8.63;;;;;;;;;;4962194;28;20231;-63
2021/12/24 14:06:40;;;;;;;12.93;9.57;;;;;;;;;;4954574;28;20216;-62
2021/12/24 14:09:08;;;;;;;9.57;7.90;;;;;;;;;;4965962;28;20800;-63
2021/12/24 14:11:37;;;;;;;13.17;9.57;;;;;;;;;;4963065;28;20283;-64
2021/12/24 14:14:29;;;;;;;7.17;6.33;;;;;;;;;;4977879;28;20287;-64
2021/12/24 14:22:36;;;;;;;7.20;5.80;;;;;;;;;;4968923;28;20221;-64
2021/12/24 14:25:14;;;;;;;10.33;6.90;;;;;;;;;;4953652;28;20734;-64
2021/12/24 14:27:46;;;;;;;6.67;5.77;;;;;;;;;;4948985;28;20204;-64
2021/12/24 14:30:16;;;;;;;6.73;6.03;;;;;;;;;;4959256;28;20559;-64
2021/12/24 14:32:49;;;;;;;7.03;5.60;;;;;;;;;;4954503;28;20722;-63
2021/12/24 14:35:19;;;;;;;16.33;10.27;;;;;;;;;;4963457;28;20242;-64
2021/12/24 14:38:00;;;;;;;6.37;5.13;;;;;;;;;;4973979;28;20617;-64
2021/12/24 14:40:30;;;;;;;6.07;5.37;;;;;;;;;;4942397;28;20208;-64
2021/12/24 14:42:58;;;;;;;8.23;6.33;;;;;;;;;;4957995;28;20224;-64
2021/12/24 14:45:25;;;;;;;8.13;6.47;;;;;;;;;;4963792;28;20216;-64
2021/12/24 14:47:56;;;;;;;8.50;6.30;;;;;;;;;;4949034;28;20232;-64
2021/12/24 14:50:23;;;;;;;15.57;11.57;;;;;;;;;;4960355;28;20918;-64
2021/12/24 14:53:07;;;;;;;21.97;18.23;;;;;;;;;;4968406;28;20601;-63
2021/12/24 14:55:45;;;;;;;11.77;8.77;;;;;;;;;;4965371;28;20618;-64
2021/12/24 14:58:13;;;;;;;13.47;8.63;;;;;;;;;;4954090;28;20208;-65
2021/12/24 15:00:48;;;;;;;11.90;8.63;;;;;;;;;;4949360;28;20212;-63
2021/12/24 15:03:17;;;;;;;15.87;11.07;;;;;;;;;;4952484;28;20748;-63
2021/12/24 15:05:46;;;;;;;11.57;8.33;;;;;;;;;;4957461;28;20217;-64
2021/12/24 15:08:24;;;;;;;17.03;11.77;;;;;;;;;;4956176;28;20763;-64
2021/12/24 15:10:58;;;;;;;10.03;7.10;;;;;;;;;;4961952;28;20223;-64
2021/12/24 15:13:27;;;;;;;9.67;7.00;;;;;;;;;;4976589;28;20228;-64
2021/12/24 15:15:56;;;;;;;10.53;7.73;;;;;;;;;;4955279;28;20228;-64
2021/12/24 15:18:23;;;;;;;9.80;8.10;;;;;;;;;;4950281;28;20239;-64
2021/12/24 15:20:50;;;;;;;9.77;8.40;;;;;;;;;;4954549;28;20204;-64
2021/12/24 15:23:18;;;;;;;26.57;17.63;;;;;;;;;;4956834;28;20224;-64
2021/12/24 15:25:46;;;;;;;14.90;10.60;;;;;;;;;;4964328;28;20267;-64
2021/12/24 15:28:18;;;;;;;14.23;10.20;;;;;;;;;;4961801;28;20266;-63
2021/12/24 15:30:47;;;;;;;13.23;11.27;;;;;;;;;;4953173;28;20212;-64
2021/12/24 15:33:15;;;;;;;14.77;12.40;;;;;;;;;;4943865;28;20259;-63
2021/12/24 15:35:42;;;;;;;12.57;10.70;;;;;;;;;;4943303;28;20287;-63
2021/12/24 15:38:10;;;;;;;11.23;9.73;;;;;;;;;;4953366;28;20208;-64
2021/12/24 15:40:37;;;;;;;11.27;10.07;;;;;;;;;;4971447;28;20243;-64
2021/12/24 15:43:08;;;;;;;10.83;9.73;;;;;;;;;;4962733;28;20234;-64
2021/12/24 15:45:36;;;;;;;11.07;9.00;;;;;;;;;;4966748;28;20258;-64
2021/12/24 15:48:05;;;;;;;11.83;9.27;;;;;;;;;;4961082;28;21111;-63
2021/12/24 15:50:32;;;;;;;10.63;9.30;;;;;;;;;;4943421;28;20239;-65
2021/12/24 15:52:59;;;;;;;11.40;8.10;;;;;;;;;;4950776;28;20235;-64
2021/12/24 15:55:28;;;;;;;6.73;6.03;;;;;;;;;;4949290;28;20217;-64
2021/12/24 15:57:55;;;;;;;6.33;5.63;;;;;;;;;;4947966;28;20228;-63
2021/12/24 16:00:24;;;;;;;6.73;5.93;;;;;;;;;;4955980;28;20204;-63
2021/12/24 16:02:51;;;;;;;11.33;8.10;;;;;;;;;;4962173;28;20705;-64
2021/12/24 16:05:19;;;;;;;17.83;11.83;;;;;;;;;;4952967;28;20243;-63
2021/12/24 16:07:47;;;;;;;14.07;10.40;;;;;;;;;;4966403;28;20207;-64
2021/12/24 16:10:14;;;;;;;9.83;7.77;;;;;;;;;;4959317;28;20205;-64
2021/12/24 16:12:42;;;;;;;13.00;9.70;;;;;;;;;;4968676;28;20223;-64
2021/12/24 16:15:12;;;;;;;21.07;14.63;;;;;;;;;;4968178;28;20559;-64
2021/12/24 16:17:40;;;;;;;20.07;14.23;;;;;;;;;;4960367;28;20200;-64
2021/12/24 16:20:08;;;;;;;15.57;12.37;;;;;;;;;;4961188;28;20196;-63
2021/12/24 16:22:35;;;;;;;10.90;9.47;;;;;;;;;;4963186;28;20246;-64
2021/12/24 16:25:03;;;;;;;13.90;11.23;;;;;;;;;;4971214;28;20279;-64
2021/12/24 16:27:31;;;;;;;11.87;8.70;;;;;;;;;;4981595;28;20200;-64
2021/12/24 16:30:00;;;;;;;11.17;7.77;;;;;;;;;;4961836;28;20207;-64
2021/12/24 16:32:30;;;;;;;9.53;7.50;;;;;;;;;;4961618;28;20220;-64
2021/12/24 16:34:59;;;;;;;7.00;6.30;;;;;;;;;;4961149;28;20207;-64
2021/12/24 16:37:29;;;;;;;9.60;7.27;;;;;;;;;;4946460;28;20224;-62
2021/12/24 16:39:57;;;;;;;10.70;7.20;;;;;;;;;;4943286;28;20220;-63
2021/12/24 16:42:25;;;;;;;9.93;6.90;;;;;;;;;;4942866;28;20232;-65
2021/12/24 16:44:53;;;;;;;8.37;6.60;;;;;;;;;;4962549;28;20227;-62
2021/12/24 16:47:21;;;;;;;8.10;7.07;;;;;;;;;;4949549;28;20641;-64
2021/12/24 16:49:48;;;;;;;10.63;7.77;;;;;;;;;;4953928;28;20228;-63
2021/12/24 16:52:16;;;;;;;11.23;7.77;;;;;;;;;;4958267;28;20208;-64
2021/12/24 16:54:43;;;;;;;12.53;9.83;;;;;;;;;;4951173;28;20212;-63